Time;durP1;ratioP1;P1;durP2;ratioP2;P2;SDS_P1;SDS_P2;PMS_P1;PMS_P2;Temp;Humidity;BMP_temperature;BMP_pressure;BME280_temperature;BME280_humidity;BME280_pressure;Samples;Min_cycle;Max_cycle;Signal;HPM_P1;HPM_P2
2024/01/15 00:00:24;;;;;;;17.88;5.43;;;2.30;99.90;;;1.98;100.00;99801.44;5271152;28;20040;-44
2024/01/15 00:02:57;;;;;;;9.95;3.80;;;2.40;99.90;;;2.05;100.00;99795.81;5260406;28;20411;-44
2024/01/15 00:05:29;;;;;;;10.15;4.05;;;2.40;99.90;;;2.09;100.00;99790.03;5256601;28;20121;-44
2024/01/15 00:08:02;;;;;;;10.27;4.45;;;2.50;99.90;;;2.09;100.00;99793.47;5254291;28;20048;-44
2024/01/15 00:10:35;;;;;;;11.57;4.28;;;2.50;99.90;;;2.11;100.00;99788.41;5272226;28;20044;-44
2024/01/15 00:13:07;;;;;;;7.70;4.05;;;2.50;99.90;;;2.15;100.00;99775.81;5263527;28;20059;-45
2024/01/15 00:15:40;;;;;;;12.73;3.92;;;2.50;99.90;;;2.19;100.00;99781.97;5264570;28;20089;-46
2024/01/15 00:18:12;;;;;;;8.68;3.95;;;2.50;99.90;;;2.22;100.00;99781.22;5260091;28;20044;-44
2024/01/15 00:20:45;;;;;;;8.52;3.97;;;2.60;99.90;;;2.22;100.00;99782.16;5250891;28;20505;-44
2024/01/15 00:23:17;;;;;;;9.00;4.75;;;2.60;99.90;;;2.20;100.00;99772.56;5263667;28;20047;-45
2024/01/15 00:25:52;;;;;;;11.15;3.95;;;2.60;99.90;;;2.19;100.00;99769.13;5259781;28;20044;-45
2024/01/15 00:28:25;;;;;;;12.13;4.07;;;2.60;99.90;;;2.18;100.00;99759.63;5252990;28;20120;-45
2024/01/15 00:30:57;;;;;;;9.57;3.90;;;2.50;99.90;;;2.17;100.00;99763.03;5242935;28;20091;-44
2024/01/15 00:33:29;;;;;;;11.13;3.97;;;2.60;99.90;;;2.17;100.00;99760.44;5267992;28;20048;-45
2024/01/15 00:36:02;;;;;;;8.98;3.92;;;2.50;99.90;;;2.18;100.00;99767.34;5270648;28;20114;-45
2024/01/15 00:38:34;;;;;;;7.03;3.03;;;2.50;99.90;;;2.15;100.00;99762.03;5266080;28;20415;-44
2024/01/15 00:41:08;;;;;;;6.38;3.75;;;2.50;99.90;;;2.13;100.00;99758.50;5273475;28;20040;-45
2024/01/15 00:43:40;;;;;;;17.00;4.15;;;2.50;99.90;;;2.04;100.00;99766.63;5264624;28;20044;-45
2024/01/15 00:46:13;;;;;;;13.10;4.03;;;2.50;99.90;;;2.00;100.00;99756.09;5246476;28;20446;-45
2024/01/15 00:48:46;;;;;;;14.48;4.40;;;2.40;99.90;;;1.98;100.00;99755.16;5258080;28;20050;-45
2024/01/15 00:51:19;;;;;;;7.25;3.03;;;2.40;99.90;;;1.93;100.00;99751.47;5265442;28;20046;-44
2024/01/15 00:53:51;;;;;;;10.27;4.22;;;2.40;99.90;;;1.89;100.00;99756.44;5263709;28;20040;-44
2024/01/15 00:56:25;;;;;;;7.72;3.47;;;2.40;99.90;;;1.87;100.00;99747.75;5261692;28;20064;-45
2024/01/15 00:59:01;;;;;;;7.40;3.85;;;2.30;99.90;;;1.82;100.00;99744.06;5256051;28;20047;-44
2024/01/15 01:01:33;;;;;;;10.10;4.05;;;2.30;99.90;;;1.84;100.00;99744.16;5264653;28;20094;-44
2024/01/15 01:04:06;;;;;;;9.13;5.00;;;2.30;99.90;;;1.81;100.00;99746.56;5259543;28;20045;-45
2024/01/15 01:06:38;;;;;;;8.48;3.35;;;2.30;99.90;;;1.82;100.00;99759.47;5242709;28;20441;-44
2024/01/15 01:09:10;;;;;;;6.55;2.55;;;2.30;99.90;;;1.85;100.00;99748.50;5257978;28;20041;-45
2024/01/15 01:11:44;;;;;;;11.38;5.13;;;2.30;99.90;;;1.88;100.00;99754.66;5258461;28;20072;-45
2024/01/15 01:14:16;;;;;;;11.77;4.30;;;2.30;99.90;;;1.83;100.00;99751.00;5251235;28;20533;-45
2024/01/15 01:16:49;;;;;;;12.95;5.63;;;2.30;99.90;;;1.80;100.00;99745.66;5263681;28;20150;-45
2024/01/15 01:19:21;;;;;;;10.57;4.65;;;2.30;99.90;;;1.79;100.00;99753.31;5255235;28;20131;-44
2024/01/15 01:21:53;;;;;;;10.82;4.70;;;2.20;99.90;;;1.83;100.00;99751.00;5268023;28;20497;-44
2024/01/15 01:24:26;;;;;;;13.13;5.00;;;2.20;99.90;;;1.82;100.00;99753.44;5264441;28;20040;-44
2024/01/15 01:26:59;;;;;;;11.20;4.55;;;2.20;99.90;;;1.81;100.00;99751.69;5262083;28;20062;-45
2024/01/15 01:29:32;;;;;;;13.77;5.50;;;2.20;99.90;;;1.83;100.00;99755.25;5273327;28;20423;-44
2024/01/15 01:32:04;;;;;;;16.02;4.78;;;2.30;99.90;;;1.76;100.00;99753.13;5264723;28;20053;-44
2024/01/15 01:34:43;;;;;;;6.85;3.60;;;2.20;99.90;;;1.76;100.00;99754.03;5269822;28;20422;-45
2024/01/15 01:37:16;;;;;;;13.35;4.35;;;2.20;99.90;;;1.77;100.00;99752.34;5266937;28;20430;-45
2024/01/15 01:39:48;;;;;;;14.27;5.75;;;2.20;99.90;;;1.76;100.00;99743.75;5246616;28;20048;-45
2024/01/15 01:42:22;;;;;;;10.40;4.32;;;2.20;99.90;;;1.73;100.00;99740.13;5263288;28;20051;-45
2024/01/15 01:44:54;;;;;;;11.55;4.32;;;2.20;99.90;;;1.68;100.00;99741.56;5257954;28;20048;-44
2024/01/15 01:47:26;;;;;;;12.75;4.90;;;2.10;99.90;;;1.66;100.00;99738.03;5271474;28;20502;-44
2024/01/15 01:49:59;;;;;;;11.85;4.07;;;2.10;99.90;;;1.63;100.00;99747.38;5262555;28;20059;-45
2024/01/15 01:52:32;;;;;;;10.82;4.57;;;2.10;99.90;;;1.68;100.00;99741.56;5256275;28;20075;-45
2024/01/15 01:55:10;;;;;;;13.07;4.20;;;2.10;99.90;;;1.70;100.00;99735.72;5268915;28;20414;-45
2024/01/15 01:57:44;;;;;;;18.88;5.15;;;2.10;99.90;;;1.72;100.00;99744.38;5264101;28;20045;-44
2024/01/15 02:00:17;;;;;;;9.98;3.65;;;2.10;99.90;;;1.73;100.00;99733.31;5270335;28;20051;-45
2024/01/15 02:02:49;;;;;;;8.57;4.20;;;2.20;99.90;;;1.71;100.00;99734.91;5254684;28;20048;-45
2024/01/15 02:05:25;;;;;;;13.55;4.70;;;2.10;99.90;;;1.68;100.00;99733.84;5258489;28;20048;-44
2024/01/15 02:07:58;;;;;;;14.07;5.28;;;2.10;99.90;;;1.70;100.00;99732.28;5273553;28;20111;-45
2024/01/15 02:10:30;;;;;;;11.93;5.28;;;2.10;99.90;;;1.75;100.00;99736.81;5266773;28;20097;-45
2024/01/15 02:13:04;;;;;;;8.25;4.30;;;2.10;99.90;;;1.78;100.00;99736.13;5260305;28;20498;-45
2024/01/15 02:15:36;;;;;;;13.20;5.30;;;2.20;99.90;;;1.81;100.00;99736.28;5248127;28;20067;-45
2024/01/15 02:18:09;;;;;;;10.00;4.22;;;2.20;99.90;;;1.84;100.00;99732.19;5259761;28;20044;-45
2024/01/15 02:20:41;;;;;;;14.63;5.63;;;2.20;99.90;;;1.87;100.00;99734.03;5262069;28;20052;-44
2024/01/15 02:23:16;;;;;;;11.13;4.90;;;2.30;99.90;;;1.84;100.00;99731.31;5251252;28;20048;-46
2024/01/15 02:25:49;;;;;;;16.33;5.88;;;2.20;99.90;;;1.85;100.00;99736.53;5267441;28;20075;-45
2024/01/15 02:28:21;;;;;;;12.60;5.53;;;2.30;99.90;;;1.86;100.00;99735.72;5262416;28;20470;-44
2024/01/15 02:30:54;;;;;;;16.23;5.70;;;2.30;99.90;;;1.84;100.00;99745.03;5263782;28;20043;-44
2024/01/15 02:33:26;;;;;;;12.68;4.35;;;2.30;99.90;;;1.83;100.00;99744.97;5257648;28;20041;-44
2024/01/15 02:35:58;;;;;;;11.45;4.65;;;2.30;99.90;;;1.81;100.00;99752.56;5245989;28;20044;-45
2024/01/15 02:38:32;;;;;;;15.25;4.13;;;2.30;99.90;;;1.82;100.00;99743.16;5245320;28;20044;-45
2024/01/15 02:41:08;;;;;;;14.38;5.07;;;2.20;99.90;;;1.79;100.00;99749.03;5263448;28;20036;-46
2024/01/15 02:43:40;;;;;;;;;;;2.20;99.90;;;1.76;100.00;99743.75;5250920;28;20056;-44
2024/01/15 02:46:12;;;;;;;9.55;3.35;;;2.20;99.90;;;1.77;100.00;99752.34;5261910;28;19924;-44
2024/01/15 02:48:45;;;;;;;11.13;5.22;;;2.20;99.90;;;1.77;100.00;99753.22;5264187;28;20044;-44
2024/01/15 02:51:20;;;;;;;13.55;5.75;;;2.20;99.90;;;1.77;100.00;99748.09;5259297;28;20084;-45
2024/01/15 02:53:53;;;;;;;;;;;2.20;99.90;;;1.79;100.00;99743.91;5264508;28;20742;-44
2024/01/15 02:56:26;;;;;;;9.77;4.40;;;2.20;99.90;;;1.81;100.00;99736.28;5261627;28;19928;-44
2024/01/15 02:58:59;;;;;;;10.30;3.90;;;2.20;99.90;;;1.86;100.00;99740.84;5253917;28;20049;-44
2024/01/15 03:01:34;;;;;;;17.33;5.43;;;2.30;99.90;;;1.90;100.00;99737.66;5273665;28;20514;-44
2024/01/15 03:04:06;;;;;;;;;;;2.30;99.90;;;1.93;100.00;99751.47;5262471;28;20064;-45
2024/01/15 03:06:38;;;;;;;11.65;5.13;;;2.30;99.90;;;1.95;100.00;99740.44;5268067;28;19981;-45
2024/01/15 03:09:12;;;;;;;6.70;3.80;;;2.30;99.90;;;1.94;100.00;99736.09;5265814;28;20068;-44
2024/01/15 03:11:45;;;;;;;13.43;5.00;;;2.30;99.90;;;1.92;100.00;99750.56;5261313;28;20502;-45
2024/01/15 03:14:17;;;;;;;13.32;3.33;;;2.30;99.90;;;1.96;100.00;99741.34;5252922;28;20052;-45
2024/01/15 03:16:50;;;;;;;9.68;4.20;;;2.40;99.90;;;2.03;100.00;99748.56;5247110;28;20058;-44
2024/01/15 03:19:22;;;;;;;10.35;4.60;;;2.40;99.90;;;2.07;100.00;99745.34;5263534;28;20049;-45
2024/01/15 03:21:54;;;;;;;16.35;5.35;;;2.50;99.90;;;2.09;100.00;99746.31;5247809;28;20079;-45
2024/01/15 03:24:28;;;;;;;11.98;4.28;;;2.40;99.90;;;2.11;100.00;99743.00;5261112;28;20062;-45
2024/01/15 03:27:00;;;;;;;11.07;4.10;;;2.50;99.90;;;2.13;100.00;99743.09;5260957;28;20495;-45
2024/01/15 03:29:36;;;;;;;14.68;4.43;;;2.50;99.90;;;2.09;100.00;99743.75;5258183;28;20521;-45
2024/01/15 03:32:08;;;;;;;;;;;2.50;99.90;;;2.07;100.00;99740.19;5277199;28;20127;-45
2024/01/15 03:34:40;;;;;;;10.20;3.55;;;2.50;99.90;;;2.07;100.00;99740.19;5262977;28;19927;-44
2024/01/15 03:37:13;;;;;;;8.77;4.38;;;2.50;99.90;;;2.05;100.00;99732.41;5264975;28;20048;-44
2024/01/15 03:39:46;;;;;;;10.52;3.63;;;2.50;99.90;;;2.04;100.00;99732.34;5262909;28;20515;-44
2024/01/15 03:42:19;;;;;;;15.13;5.05;;;2.40;99.90;;;2.03;100.00;99733.16;5264639;28;20071;-44
2024/01/15 03:44:51;;;;;;;8.55;3.75;;;2.40;99.90;;;2.05;100.00;99734.09;5270938;28;20397;-45
2024/01/15 03:47:23;;;;;;;17.20;6.05;;;2.50;99.90;;;2.01;100.00;99738.19;5264746;28;20043;-45
2024/01/15 03:49:56;;;;;;;18.13;3.65;;;2.40;99.90;;;1.98;100.00;99735.47;5264633;28;20110;-44
2024/01/15 03:52:28;;;;;;;12.50;5.53;;;2.40;99.90;;;1.99;100.00;99733.78;5252328;28;20052;-45
2024/01/15 03:55:02;;;;;;;10.30;4.28;;;2.40;99.90;;;2.01;100.00;99739.88;5275806;28;20526;-44
2024/01/15 03:57:34;;;;;;;10.57;4.63;;;2.40;99.90;;;2.04;100.00;99742.63;5260940;28;20040;-46
2024/01/15 04:00:08;;;;;;;13.63;4.22;;;2.40;99.90;;;2.05;100.00;99739.25;5260484;28;20059;-45
2024/01/15 04:02:41;;;;;;;12.43;4.55;;;2.40;99.90;;;2.07;100.00;99737.63;5257159;28;20056;-45
2024/01/15 04:05:13;;;;;;;17.65;3.67;;;2.40;99.90;;;2.10;100.00;99736.13;5264409;28;20040;-45
2024/01/15 04:07:45;;;;;;;9.38;4.32;;;2.50;99.90;;;2.13;100.00;99732.81;5261783;28;20503;-45
2024/01/15 04:10:19;;;;;;;13.25;5.18;;;2.50;99.90;;;2.16;100.00;99730.41;5257852;28;20047;-45
2024/01/15 04:12:52;;;;;;;8.95;3.83;;;2.50;99.90;;;2.19;100.00;99730.53;5258367;28;20059;-45
2024/01/15 04:15:27;;;;;;;18.15;4.97;;;2.50;99.90;;;2.18;100.00;99728.78;5258701;28;20411;-45
2024/01/15 04:18:00;;;;;;;;;;;2.60;99.90;;;2.17;100.00;99722.75;5262470;28;20039;-46
2024/01/15 04:20:33;;;;;;;9.27;4.15;;;2.50;99.90;;;2.16;100.00;99725.25;5264222;28;20565;-45
2024/01/15 04:23:05;;;;;;;8.43;5.15;;;2.50;99.90;;;2.15;100.00;99723.47;5255538;28;20036;-45
2024/01/15 04:25:42;;;;;;;15.25;4.70;;;2.50;99.90;;;2.15;100.00;99714.09;5263996;28;20067;-46
2024/01/15 04:28:14;;;;;;;14.30;5.03;;;2.50;99.90;;;2.18;100.00;99713.34;5264190;28;20036;-46
2024/01/15 04:30:47;;;;;;;14.30;4.85;;;2.50;99.90;;;2.22;100.00;99709.25;5252471;28;20450;-44
2024/01/15 04:33:19;;;;;;;9.50;4.70;;;2.60;99.90;;;2.23;100.00;99714.47;5259837;28;20048;-45
2024/01/15 04:35:51;;;;;;;7.68;3.55;;;2.60;99.90;;;2.23;100.00;99704.19;5274638;28;20044;-45
2024/01/15 04:38:24;;;;;;;13.20;5.15;;;2.60;99.90;;;2.23;100.00;99701.63;5266606;28;20118;-44
2024/01/15 04:40:57;;;;;;;15.93;4.22;;;2.60;99.90;;;2.24;100.00;99703.38;5263710;28;20055;-46
2024/01/15 04:43:33;;;;;;;7.78;4.80;;;2.60;99.90;;;2.24;100.00;99698.25;5262514;28;20136;-45
2024/01/15 04:46:10;;;;;;;11.63;5.22;;;2.60;99.90;;;2.24;100.00;99702.50;5247384;28;20048;-45
2024/01/15 04:48:42;;;;;;;15.07;4.47;;;2.50;99.90;;;2.23;100.00;99701.63;5270236;28;20094;-45
2024/01/15 04:51:15;;;;;;;11.25;5.18;;;2.60;99.90;;;2.22;100.00;99694.72;5259457;28;20060;-45
2024/01/15 04:53:47;;;;;;;10.02;4.32;;;2.60;99.90;;;2.22;100.00;99693.81;5261192;28;20055;-45
2024/01/15 04:56:21;;;;;;;8.75;3.90;;;2.60;99.90;;;2.23;100.00;99688.78;5257808;28;20059;-45
2024/01/15 04:58:53;;;;;;;13.15;4.40;;;2.60;99.90;;;2.24;100.00;99684.50;5261623;28;20041;-45
2024/01/15 05:01:25;;;;;;;10.68;4.47;;;2.60;99.90;;;2.25;100.00;99694.84;5263517;28;20058;-45
2024/01/15 05:03:58;;;;;;;6.32;3.28;;;2.60;99.90;;;2.28;100.00;99687.31;5263761;28;20044;-44
2024/01/15 05:06:30;;;;;;;8.20;3.10;;;2.60;99.90;;;2.29;100.00;99694.22;5262312;28;20126;-44
2024/01/15 05:09:04;;;;;;;10.60;3.63;;;2.60;99.90;;;2.31;100.00;99694.28;5260893;28;20037;-45
2024/01/15 05:11:37;;;;;;;10.32;4.05;;;2.60;99.90;;;2.32;100.00;99689.22;5267470;28;20049;-45
2024/01/15 05:14:10;;;;;;;12.90;3.63;;;2.60;99.90;;;2.33;100.00;99693.53;5263663;28;20044;-45
2024/01/15 05:16:48;;;;;;;11.95;3.78;;;2.70;99.90;;;2.36;100.00;99693.72;5260085;28;20044;-45
2024/01/15 05:19:21;;;;;;;14.02;4.25;;;2.70;99.90;;;2.38;100.00;99689.53;5263135;28;20432;-45
2024/01/15 05:21:53;;;;;;;8.48;3.72;;;2.70;99.90;;;2.38;100.00;99688.63;5261373;28;20151;-45
2024/01/15 05:24:26;;;;;;;5.22;3.25;;;2.70;99.90;;;2.37;100.00;99687.75;5273582;28;20040;-45
2024/01/15 05:27:00;;;;;;;10.38;3.83;;;2.70;99.90;;;2.40;100.00;99689.59;5254073;28;20124;-44
2024/01/15 05:29:35;;;;;;;10.30;4.30;;;2.70;99.90;;;2.41;100.00;99687.13;5263340;28;20051;-45
2024/01/15 05:32:07;;;;;;;;;;;2.70;99.90;;;2.42;100.00;99673.44;5259439;28;20052;-44
2024/01/15 05:34:40;;;;;;;7.57;4.10;;;2.70;99.90;;;2.45;100.00;99683.00;5259319;28;20305;-44
2024/01/15 05:37:12;;;;;;;13.02;4.38;;;2.80;99.90;;;2.46;100.00;99679.59;5267480;28;20535;-45
2024/01/15 05:39:44;;;;;;;11.48;4.40;;;2.80;99.90;;;2.46;100.00;99674.47;5249868;28;20151;-45
2024/01/15 05:42:18;;;;;;;7.40;3.22;;;2.80;99.90;;;2.48;100.00;99682.25;5263270;28;20051;-44
2024/01/15 05:44:51;;;;;;;8.63;3.63;;;2.80;99.90;;;2.47;100.00;99683.06;5261881;28;20051;-46
2024/01/15 05:47:23;;;;;;;11.43;4.10;;;2.80;99.90;;;2.46;100.00;99684.75;5248480;28;20048;-45
2024/01/15 05:49:57;;;;;;;9.65;4.43;;;2.80;99.90;;;2.49;100.00;99684.03;5253697;28;20052;-45
2024/01/15 05:52:29;;;;;;;8.38;3.15;;;2.80;99.90;;;2.49;100.00;99689.19;5252749;28;20422;-45
2024/01/15 05:55:02;;;;;;;6.60;4.07;;;2.80;99.90;;;2.48;100.00;99679.66;5244919;28;20058;-46
2024/01/15 05:57:39;;;;;;;8.25;4.78;;;2.80;99.90;;;2.49;100.00;99678.88;5256896;28;20052;-44
2024/01/15 06:00:13;;;;;;;15.98;4.60;;;2.80;99.90;;;2.49;100.00;99679.78;5265935;28;20052;-45
2024/01/15 06:02:45;;;;;;;6.25;3.55;;;2.80;99.90;;;2.51;100.00;99677.25;5251251;28;20044;-45
2024/01/15 06:05:17;;;;;;;8.73;3.85;;;2.80;99.90;;;2.51;100.00;99667.84;5264927;28;20442;-45
2024/01/15 06:07:50;;;;;;;13.60;4.40;;;2.80;99.90;;;2.50;100.00;99662.66;5280011;28;20413;-44
2024/01/15 06:10:22;;;;;;;6.57;3.10;;;2.80;99.90;;;2.51;100.00;99667.84;5246374;28;20055;-44
2024/01/15 06:12:56;;;;;;;7.45;3.90;;;2.80;99.90;;;2.52;100.00;99663.59;5255772;28;20044;-45
2024/01/15 06:15:29;;;;;;;10.02;4.75;;;2.80;99.90;;;2.52;100.00;99663.59;5266637;28;20044;-46
2024/01/15 06:18:01;;;;;;;10.55;3.95;;;2.80;99.90;;;2.53;100.00;99665.34;5248637;28;20131;-45
2024/01/15 06:20:33;;;;;;;8.32;4.50;;;2.80;99.90;;;2.54;100.00;99661.97;5262550;28;20048;-44
2024/01/15 06:23:06;;;;;;;11.55;4.60;;;2.90;99.90;;;2.53;100.00;99649.91;5273947;28;20044;-44
2024/01/15 06:25:41;;;;;;;7.13;3.80;;;2.90;99.90;;;2.52;100.00;99658.44;5262397;28;20443;-45
2024/01/15 06:28:15;;;;;;;;;;;2.80;99.90;;;2.55;100.00;99658.63;5258856;28;20047;-45
2024/01/15 06:30:47;;;;;;;14.85;4.72;;;2.90;99.90;;;2.56;100.00;99657.81;5257606;28;19924;-44
2024/01/15 06:33:20;;;;;;;10.18;3.15;;;2.90;99.90;;;2.55;100.00;99651.78;5276181;28;20040;-44
2024/01/15 06:35:52;;;;;;;7.20;3.60;;;2.80;99.90;;;2.56;100.00;99650.09;5262472;28;20056;-44
2024/01/15 06:38:25;;;;;;;8.55;3.42;;;2.90;99.90;;;2.55;100.00;99651.78;5255339;28;20051;-47
2024/01/15 06:40:57;;;;;;;9.52;3.63;;;2.90;99.90;;;2.55;100.00;99641.47;5268981;28;20523;-49
2024/01/15 06:43:31;;;;;;;6.57;2.95;;;2.90;99.90;;;2.56;100.00;99644.94;5257232;28;20060;-49
2024/01/15 06:46:03;;;;;;;8.57;4.32;;;2.90;99.90;;;2.56;100.00;99645.81;5263155;28;20508;-47
2024/01/15 06:48:35;;;;;;;13.55;4.03;;;2.90;99.90;;;2.56;100.00;99647.50;5261300;28;20504;-48
2024/01/15 06:51:08;;;;;;;9.48;3.45;;;2.90;99.90;;;2.57;100.00;99651.84;5269730;28;20048;-49
2024/01/15 06:53:43;;;;;;;10.25;5.30;;;2.90;99.90;;;2.58;100.00;99649.34;5258839;28;20529;-49
2024/01/15 06:56:16;;;;;;;9.63;4.10;;;2.90;99.90;;;2.57;100.00;99651.84;5270889;28;20055;-48
2024/01/15 06:58:49;;;;;;;8.48;4.05;;;2.90;99.90;;;2.58;100.00;99643.31;5267146;28;20515;-47
2024/01/15 07:01:22;;;;;;;9.35;3.83;;;2.90;99.90;;;2.58;100.00;99643.31;5256528;28;20052;-49
2024/01/15 07:03:54;;;;;;;11.35;5.15;;;2.90;99.90;;;2.58;100.00;99641.63;5257718;28;20048;-47
2024/01/15 07:06:27;;;;;;;11.57;4.75;;;2.90;99.90;;;2.59;100.00;99634.78;5262246;28;20075;-46
2024/01/15 07:08:59;;;;;;;13.98;4.13;;;2.90;99.90;;;2.60;100.00;99633.97;5267055;28;20434;-48
2024/01/15 07:11:32;;;;;;;9.98;4.03;;;2.90;99.90;;;2.59;100.00;99634.78;5251296;28;20101;-47
2024/01/15 07:14:05;;;;;;;12.27;4.93;;;2.90;99.90;;;2.60;100.00;99641.69;5271949;28;20056;-50
2024/01/15 07:16:38;;;;;;;11.35;5.53;;;2.90;99.90;;;2.61;100.00;99643.47;5253033;28;20075;-48
2024/01/15 07:19:10;;;;;;;10.93;4.82;;;2.90;99.90;;;2.63;100.00;99642.72;5247142;28;20043;-47
2024/01/15 07:21:43;;;;;;;8.10;4.15;;;2.90;99.90;;;2.65;100.00;99642.78;5272539;28;20058;-49
2024/01/15 07:24:15;;;;;;;13.77;5.80;;;3.00;99.90;;;2.65;100.00;99645.38;5260193;28;20044;-47
2024/01/15 07:26:47;;;;;;;11.48;4.32;;;3.00;99.90;;;2.66;100.00;99650.56;5257273;28;20411;-51
2024/01/15 07:29:21;;;;;;;11.95;4.93;;;3.00;99.90;;;2.65;100.00;99645.38;5261380;28;20048;-48
2024/01/15 07:31:53;;;;;;;8.65;4.15;;;3.00;99.90;;;2.63;100.00;99636.69;5250728;28;20048;-47
2024/01/15 07:34:26;;;;;;;9.75;3.60;;;2.90;99.90;;;2.63;100.00;99647.00;5253023;28;20048;-47
2024/01/15 07:36:58;;;;;;;9.05;5.20;;;2.90;99.90;;;2.63;100.00;99641.84;5266647;28;20052;-47
2024/01/15 07:39:31;;;;;;;8.98;4.60;;;3.00;99.90;;;2.62;100.00;99634.94;5251106;28;20056;-48
2024/01/15 07:42:03;;;;;;;12.77;4.72;;;3.00;99.90;;;2.63;100.00;99637.59;5251695;28;20059;-50
2024/01/15 07:44:37;;;;;;;11.43;4.60;;;2.90;99.90;;;2.63;100.00;99627.28;5255060;28;20135;-47
2024/01/15 07:47:10;;;;;;;10.50;4.45;;;2.90;99.90;;;2.64;100.00;99635.88;5252217;28;20071;-48
2024/01/15 07:49:45;;;;;;;8.82;3.50;;;3.00;99.90;;;2.65;100.00;99640.22;5249829;28;20063;-47
2024/01/15 07:52:18;;;;;;;9.02;4.60;;;3.00;99.90;;;2.65;100.00;99635.06;5270360;28;20040;-48
2024/01/15 07:54:50;;;;;;;8.57;4.63;;;3.00;99.90;;;2.65;100.00;99641.09;5262378;28;20534;-46
2024/01/15 07:57:23;;;;;;;8.00;5.40;;;3.00;99.90;;;2.66;100.00;99641.97;5264118;28;20040;-48
2024/01/15 08:00:01;;;;;;;9.10;4.35;;;3.00;99.90;;;2.67;100.00;99633.44;5252228;28;20072;-46
2024/01/15 08:02:33;;;;;;;14.45;6.30;;;3.00;99.90;;;2.69;100.00;99642.13;5250080;28;20044;-46
2024/01/15 08:05:06;;;;;;;13.25;4.82;;;3.00;99.90;;;2.69;100.00;99645.59;5253037;28;20060;-47
2024/01/15 08:07:39;;;;;;;9.75;4.95;;;3.00;99.90;;;2.70;100.00;99642.22;5253738;28;20507;-47
2024/01/15 08:10:13;;;;;;;9.15;4.03;;;3.00;99.90;;;2.70;100.00;99642.22;5254790;28;20060;-47
2024/01/15 08:12:46;;;;;;;10.40;3.95;;;3.00;99.90;;;2.72;100.00;99642.28;5259729;28;20537;-47
2024/01/15 08:15:19;;;;;;;9.43;4.53;;;3.00;99.90;;;2.73;100.00;99644.03;5263482;28;20055;-47
2024/01/15 08:17:52;;;;;;;6.70;4.45;;;3.00;99.90;;;2.76;100.00;99641.63;5254209;28;20059;-47
2024/01/15 08:20:25;;;;;;;11.40;3.85;;;3.00;99.90;;;2.77;100.00;99635.66;5260911;28;20043;-46
2024/01/15 08:22:57;;;;;;;11.43;4.22;;;3.00;99.90;;;2.79;100.00;99628.00;5270392;28;20529;-48
2024/01/15 08:25:30;;;;;;;8.30;4.47;;;3.10;99.90;;;2.80;100.00;99625.50;5253151;28;20056;-46
2024/01/15 08:28:02;;;;;;;8.90;3.78;;;3.10;99.90;;;2.83;100.00;99623.09;5253926;28;20068;-47
2024/01/15 08:30:36;;;;;;;12.02;4.43;;;3.10;99.90;;;2.85;100.00;99634.31;5248585;28;20056;-47
2024/01/15 08:33:08;;;;;;;9.40;3.90;;;3.10;99.90;;;2.88;100.00;99631.03;5265452;28;20047;-47
2024/01/15 08:35:40;;;;;;;8.02;3.50;;;3.20;99.90;;;2.90;100.00;99631.97;5248869;28;20059;-47
2024/01/15 08:38:13;;;;;;;11.98;4.63;;;3.20;99.90;;;2.93;100.00;99633.00;5253000;28;20052;-47
2024/01/15 08:40:45;;;;;;;9.20;3.75;;;3.20;99.90;;;2.96;100.00;99634.81;5261677;28;20147;-48
2024/01/15 08:43:18;;;;;;;10.02;4.00;;;3.20;99.90;;;2.97;100.00;99637.47;5265922;28;20048;-48
2024/01/15 08:45:51;;;;;;;11.20;4.97;;;3.30;99.90;;;2.99;100.00;99629.81;5269391;28;20044;-47
2024/01/15 08:48:23;;;;;;;13.25;3.65;;;3.30;99.90;;;3.02;100.00;99634.22;5266481;28;20048;-48
2024/01/15 08:50:56;;;;;;;10.40;5.32;;;3.30;99.90;;;3.08;100.00;99631.94;5267392;28;20048;-46
2024/01/15 08:53:28;;;;;;;10.30;3.53;;;3.30;99.90;;;3.10;100.00;99632.88;5250069;28;20457;-47
2024/01/15 08:56:01;;;;;;;6.82;3.70;;;3.40;99.90;;;3.11;100.00;99635.53;5252020;28;20418;-48
2024/01/15 08:58:33;;;;;;;6.47;3.17;;;3.40;99.90;;;3.11;100.00;99638.09;5253501;28;20052;-47
2024/01/15 09:01:07;;;;;;;7.57;3.53;;;3.40;99.90;;;3.11;100.00;99637.22;5254529;28;20062;-47
2024/01/15 09:03:41;;;;;;;8.25;3.58;;;3.40;99.90;;;3.10;100.00;99630.31;5253635;28;20059;-47
2024/01/15 09:06:14;;;;;;;9.15;4.75;;;3.40;99.90;;;3.07;100.00;99631.06;5264283;28;20067;-47
2024/01/15 09:08:46;;;;;;;8.23;4.18;;;3.40;99.90;;;3.07;100.00;99630.19;5265209;28;20502;-47
2024/01/15 09:11:18;;;;;;;7.10;3.72;;;3.40;99.90;;;3.06;100.00;99631.84;5261394;28;20036;-48
2024/01/15 09:13:54;;;;;;;11.35;4.13;;;3.40;99.90;;;3.09;100.00;99625.97;5259965;28;20391;-48
2024/01/15 09:16:27;;;;;;;;;;;3.40;99.90;;;3.09;100.00;99628.56;5269141;28;20040;-47
2024/01/15 09:19:00;;;;;;;7.50;3.58;;;3.40;99.90;;;3.07;100.00;99630.19;5259739;28;19923;-47
2024/01/15 09:21:32;;;;;;;5.95;4.03;;;3.40;99.90;;;3.07;100.00;99630.19;5264544;28;20072;-47
2024/01/15 09:24:08;;;;;;;8.18;3.67;;;3.30;99.90;;;3.07;100.00;99625.03;5266235;28;20052;-47
2024/01/15 09:26:40;;;;;;;9.18;3.67;;;3.40;99.90;;;3.05;100.00;99622.38;5256286;28;20487;-46
2024/01/15 09:29:15;;;;;;;7.20;3.83;;;3.40;99.90;;;3.06;100.00;99631.84;5255173;28;20056;-46
2024/01/15 09:31:50;;;;;;;9.65;4.15;;;3.30;99.90;;;3.06;100.00;99630.97;5250619;28;20046;-47
2024/01/15 09:34:22;;;;;;;12.35;4.70;;;3.40;99.90;;;3.05;100.00;99632.66;5264741;28;20510;-47
2024/01/15 09:36:55;;;;;;;11.20;3.50;;;3.40;99.90;;;3.05;100.00;99636.94;5247768;28;20052;-46
2024/01/15 09:39:27;;;;;;;8.57;3.50;;;3.30;99.90;;;3.03;100.00;99634.31;5264239;28;20051;-47
2024/01/15 09:42:04;;;;;;;10.70;4.18;;;3.30;99.90;;;3.06;100.00;99638.69;5266116;28;20171;-47
2024/01/15 09:44:38;;;;;;;4.80;3.15;;;3.40;99.90;;;3.04;100.00;99637.75;5256297;28;20557;-47
2024/01/15 09:47:12;;;;;;;8.75;3.58;;;3.30;99.90;;;2.97;100.00;99634.91;5251838;28;20067;-48
2024/01/15 09:49:44;;;;;;;12.32;3.20;;;3.30;99.90;;;2.92;100.00;99649.22;5268359;28;20052;-46
2024/01/15 09:52:20;;;;;;;7.25;3.05;;;3.30;99.90;;;2.84;100.00;99642.84;5256346;28;20147;-47
2024/01/15 09:54:53;;;;;;;6.40;3.78;;;3.20;99.90;;;2.72;100.00;99647.41;5266672;28;20102;-48
2024/01/15 09:57:26;;;;;;;4.70;2.05;;;3.10;99.90;;;2.64;100.00;99653.91;5257220;28;20055;-46
2024/01/15 10:00:04;;;;;;;5.43;2.75;;;3.00;99.90;;;2.55;100.00;99650.91;5255102;28;20447;-48
2024/01/15 10:02:39;;;;;;;4.15;2.63;;;3.00;99.90;;;2.50;100.00;99640.38;5265137;28;20043;-47
2024/01/15 10:05:13;;;;;;;3.05;2.45;;;2.90;99.90;;;2.49;100.00;99640.31;5270654;28;20056;-47
2024/01/15 10:07:49;;;;;;;4.18;1.52;;;2.90;99.90;;;2.41;100.00;99645.97;5266090;28;20083;-46
2024/01/15 10:10:22;;;;;;;6.90;2.33;;;2.80;99.90;;;2.38;100.00;99663.81;5272290;28;20059;-46
2024/01/15 10:12:55;;;;;;;3.92;1.90;;;2.80;99.90;;;2.32;100.00;99660.94;5258561;28;20068;-47
2024/01/15 10:15:28;;;;;;;3.72;2.53;;;2.80;99.90;;;2.23;100.00;99659.59;5267124;28;20055;-47
2024/01/15 10:18:02;;;;;;;4.15;2.22;;;2.70;99.90;;;2.14;100.00;99662.59;5255728;28;20144;-47
2024/01/15 10:20:34;;;;;;;3.08;1.80;;;2.60;99.90;;;2.06;100.00;99657.06;5270454;28;20574;-46
2024/01/15 10:23:07;;;;;;;2.15;1.33;;;2.50;99.90;;;2.06;100.00;99656.19;5262968;28;20083;-47
2024/01/15 10:25:40;;;;;;;3.35;1.77;;;2.50;99.90;;;2.06;100.00;99661.31;5259385;28;20143;-47
2024/01/15 10:28:14;;;;;;;5.55;2.17;;;2.50;99.90;;;2.08;100.00;99662.28;5262187;28;20445;-48
2024/01/15 10:30:47;;;;;;;1.85;1.40;;;2.50;99.90;;;2.12;100.00;99661.63;5268695;28;20075;-47
2024/01/15 10:33:25;;;;;;;3.58;1.90;;;2.50;99.90;;;2.09;100.00;99664.94;5266761;28;20106;-46
2024/01/15 10:35:59;;;;;;;2.60;1.70;;;2.50;99.90;;;2.10;100.00;99652.97;5250364;28;20055;-47
2024/01/15 10:38:32;;;;;;;5.78;2.10;;;2.50;99.90;;;2.09;100.00;99667.50;5255712;28;20040;-47
2024/01/15 10:41:05;;;;;;;1.95;1.52;;;2.50;99.90;;;2.06;100.00;99658.75;5260872;28;20071;-48
2024/01/15 10:43:38;;;;;;;1.85;1.25;;;2.50;99.90;;;2.03;100.00;99662.06;5258041;28;20534;-47
2024/01/15 10:46:14;;;;;;;4.00;2.25;;;2.50;99.90;;;2.02;100.00;99656.81;5266461;28;20074;-48
2024/01/15 10:48:47;;;;;;;3.13;1.88;;;2.50;99.90;;;2.06;100.00;99663.88;5253235;28;20144;-48